sensor_id;sensor_type;location;lat;lon;timestamp;P1;durP1;ratioP1;P2;durP2;ratioP2
10465;SDS011;5280;42.600;23.556;2023-08-17T00:01:15;4.10;;;2.70;;
10465;SDS011;5280;42.600;23.556;2023-08-17T00:03:42;3.87;;;2.47;;
10465;SDS011;5280;42.600;23.556;2023-08-17T00:06:08;3.50;;;2.70;;
10465;SDS011;5280;42.600;23.556;2023-08-17T00:08:35;3.03;;;2.40;;
10465;SDS011;5280;42.600;23.556;2023-08-17T00:11:04;3.70;;;2.50;;
10465;SDS011;5280;42.600;23.556;2023-08-17T00:13:30;2.60;;;2.40;;
10465;SDS011;5280;42.600;23.556;2023-08-17T00:15:57;3.90;;;2.50;;
10465;SDS011;5280;42.600;23.556;2023-08-17T00:18:24;3.43;;;2.60;;
10465;SDS011;5280;42.600;23.556;2023-08-17T00:20:51;3.60;;;2.40;;
10465;SDS011;5280;42.600;23.556;2023-08-17T00:23:18;3.23;;;2.30;;
10465;SDS011;5280;42.600;23.556;2023-08-17T00:25:45;4.30;;;2.63;;
10465;SDS011;5280;42.600;23.556;2023-08-17T00:28:14;7.63;;;2.73;;
10465;SDS011;5280;42.600;23.556;2023-08-17T00:30:41;2.97;;;2.60;;
10465;SDS011;5280;42.600;23.556;2023-08-17T00:33:08;4.37;;;3.10;;
10465;SDS011;5280;42.600;23.556;2023-08-17T00:35:35;2.97;;;2.70;;
10465;SDS011;5280;42.600;23.556;2023-08-17T00:38:02;4.83;;;3.07;;
10465;SDS011;5280;42.600;23.556;2023-08-17T00:40:29;5.37;;;2.77;;
10465;SDS011;5280;42.600;23.556;2023-08-17T00:42:56;3.67;;;2.60;;
10465;SDS011;5280;42.600;23.556;2023-08-17T00:45:24;3.17;;;2.70;;
10465;SDS011;5280;42.600;23.556;2023-08-17T00:47:51;4.93;;;2.83;;
10465;SDS011;5280;42.600;23.556;2023-08-17T00:50:18;5.10;;;3.10;;
10465;SDS011;5280;42.600;23.556;2023-08-17T00:52:44;4.80;;;3.00;;
10465;SDS011;5280;42.600;23.556;2023-08-17T00:55:11;3.33;;;3.03;;
10465;SDS011;5280;42.600;23.556;2023-08-17T00:57:38;3.23;;;2.93;;
10465;SDS011;5280;42.600;23.556;2023-08-17T01:00:08;4.80;;;3.13;;
10465;SDS011;5280;42.600;23.556;2023-08-17T01:02:39;3.17;;;2.87;;
10465;SDS011;5280;42.600;23.556;2023-08-17T01:05:08;4.20;;;3.07;;
10465;SDS011;5280;42.600;23.556;2023-08-17T01:07:35;3.97;;;2.77;;
10465;SDS011;5280;42.600;23.556;2023-08-17T01:10:03;6.93;;;3.10;;
10465;SDS011;5280;42.600;23.556;2023-08-17T01:12:33;3.20;;;2.50;;
10465;SDS011;5280;42.600;23.556;2023-08-17T01:15:09;4.60;;;2.93;;
10465;SDS011;5280;42.600;23.556;2023-08-17T01:17:42;4.07;;;2.43;;
10465;SDS011;5280;42.600;23.556;2023-08-17T01:20:13;3.73;;;2.80;;
10465;SDS011;5280;42.600;23.556;2023-08-17T01:22:42;4.07;;;2.80;;
10465;SDS011;5280;42.600;23.556;2023-08-17T01:25:13;4.90;;;3.17;;
10465;SDS011;5280;42.600;23.556;2023-08-17T01:27:41;4.53;;;3.10;;
10465;SDS011;5280;42.600;23.556;2023-08-17T01:30:10;5.33;;;2.93;;
10465;SDS011;5280;42.600;23.556;2023-08-17T01:32:41;3.13;;;2.83;;
10465;SDS011;5280;42.600;23.556;2023-08-17T01:35:16;5.37;;;3.13;;
10465;SDS011;5280;42.600;23.556;2023-08-17T01:37:53;6.67;;;3.50;;
10465;SDS011;5280;42.600;23.556;2023-08-17T01:40:23;4.43;;;2.67;;
10465;SDS011;5280;42.600;23.556;2023-08-17T01:42:54;5.60;;;3.27;;
10465;SDS011;5280;42.600;23.556;2023-08-17T01:45:21;2.90;;;2.70;;
10465;SDS011;5280;42.600;23.556;2023-08-17T01:47:48;3.43;;;2.77;;
10465;SDS011;5280;42.600;23.556;2023-08-17T01:50:15;4.27;;;2.90;;
10465;SDS011;5280;42.600;23.556;2023-08-17T01:52:45;4.30;;;2.90;;
10465;SDS011;5280;42.600;23.556;2023-08-17T01:55:12;7.97;;;3.30;;
10465;SDS011;5280;42.600;23.556;2023-08-17T01:57:40;3.73;;;3.00;;
10465;SDS011;5280;42.600;23.556;2023-08-17T02:00:07;5.57;;;3.20;;
10465;SDS011;5280;42.600;23.556;2023-08-17T02:02:36;5.00;;;2.93;;
10465;SDS011;5280;42.600;23.556;2023-08-17T02:05:03;4.30;;;3.00;;
10465;SDS011;5280;42.600;23.556;2023-08-17T02:07:30;7.13;;;3.00;;
10465;SDS011;5280;42.600;23.556;2023-08-17T02:09:56;6.07;;;2.80;;
10465;SDS011;5280;42.600;23.556;2023-08-17T02:12:24;3.17;;;2.50;;
10465;SDS011;5280;42.600;23.556;2023-08-17T02:14:52;3.13;;;2.90;;
10465;SDS011;5280;42.600;23.556;2023-08-17T02:17:19;7.53;;;2.97;;
10465;SDS011;5280;42.600;23.556;2023-08-17T02:19:46;4.80;;;3.30;;
10465;SDS011;5280;42.600;23.556;2023-08-17T02:22:13;3.03;;;2.73;;
10465;SDS011;5280;42.600;23.556;2023-08-17T02:24:40;3.13;;;2.73;;
10465;SDS011;5280;42.600;23.556;2023-08-17T02:27:08;4.20;;;2.97;;
10465;SDS011;5280;42.600;23.556;2023-08-17T02:29:35;6.43;;;2.50;;
10465;SDS011;5280;42.600;23.556;2023-08-17T02:32:04;3.90;;;3.20;;
10465;SDS011;5280;42.600;23.556;2023-08-17T02:34:31;4.43;;;2.43;;
10465;SDS011;5280;42.600;23.556;2023-08-17T02:36:58;3.00;;;2.70;;
10465;SDS011;5280;42.600;23.556;2023-08-17T02:39:25;4.97;;;2.63;;
10465;SDS011;5280;42.600;23.556;2023-08-17T02:41:52;2.30;;;2.10;;
10465;SDS011;5280;42.600;23.556;2023-08-17T02:44:20;3.23;;;2.63;;
10465;SDS011;5280;42.600;23.556;2023-08-17T02:46:46;3.53;;;2.40;;
10465;SDS011;5280;42.600;23.556;2023-08-17T02:49:15;2.60;;;2.40;;
10465;SDS011;5280;42.600;23.556;2023-08-17T02:51:41;3.80;;;2.40;;
10465;SDS011;5280;42.600;23.556;2023-08-17T02:54:08;2.37;;;2.17;;
10465;SDS011;5280;42.600;23.556;2023-08-17T02:56:35;3.87;;;2.30;;
10465;SDS011;5280;42.600;23.556;2023-08-17T02:59:01;3.27;;;2.10;;
10465;SDS011;5280;42.600;23.556;2023-08-17T03:01:28;2.63;;;2.43;;
10465;SDS011;5280;42.600;23.556;2023-08-17T03:03:56;2.60;;;2.40;;
10465;SDS011;5280;42.600;23.556;2023-08-17T03:06:24;3.07;;;2.23;;
10465;SDS011;5280;42.600;23.556;2023-08-17T03:08:51;2.10;;;2.00;;
10465;SDS011;5280;42.600;23.556;2023-08-17T03:11:19;6.03;;;2.40;;
10465;SDS011;5280;42.600;23.556;2023-08-17T03:13:46;3.13;;;2.00;;
10465;SDS011;5280;42.600;23.556;2023-08-17T03:16:13;2.43;;;2.00;;
10465;SDS011;5280;42.600;23.556;2023-08-17T03:18:40;2.67;;;2.13;;
10465;SDS011;5280;42.600;23.556;2023-08-17T03:21:08;2.63;;;2.23;;
10465;SDS011;5280;42.600;23.556;2023-08-17T03:23:36;2.07;;;1.67;;
10465;SDS011;5280;42.600;23.556;2023-08-17T03:26:03;3.47;;;2.20;;
10465;SDS011;5280;42.600;23.556;2023-08-17T03:28:30;3.27;;;2.27;;
10465;SDS011;5280;42.600;23.556;2023-08-17T03:30:56;4.07;;;2.27;;
10465;SDS011;5280;42.600;23.556;2023-08-17T03:33:23;5.07;;;2.20;;
10465;SDS011;5280;42.600;23.556;2023-08-17T03:35:50;3.87;;;2.20;;
10465;SDS011;5280;42.600;23.556;2023-08-17T03:38:17;2.80;;;2.30;;
10465;SDS011;5280;42.600;23.556;2023-08-17T03:40:45;2.77;;;1.90;;
10465;SDS011;5280;42.600;23.556;2023-08-17T03:43:12;5.57;;;2.50;;
10465;SDS011;5280;42.600;23.556;2023-08-17T03:45:40;3.53;;;2.27;;
10465;SDS011;5280;42.600;23.556;2023-08-17T03:48:07;3.20;;;2.10;;
10465;SDS011;5280;42.600;23.556;2023-08-17T03:50:34;4.57;;;2.20;;
10465;SDS011;5280;42.600;23.556;2023-08-17T03:53:01;2.83;;;2.20;;
10465;SDS011;5280;42.600;23.556;2023-08-17T03:55:28;2.53;;;2.07;;
10465;SDS011;5280;42.600;23.556;2023-08-17T03:57:56;2.97;;;2.30;;
10465;SDS011;5280;42.600;23.556;2023-08-17T04:00:22;2.73;;;2.10;;
10465;SDS011;5280;42.600;23.556;2023-08-17T04:02:49;4.00;;;2.13;;
10465;SDS011;5280;42.600;23.556;2023-08-17T04:05:16;3.73;;;2.10;;
10465;SDS011;5280;42.600;23.556;2023-08-17T04:07:43;2.20;;;1.83;;
10465;SDS011;5280;42.600;23.556;2023-08-17T04:10:10;2.83;;;2.07;;
10465;SDS011;5280;42.600;23.556;2023-08-17T04:12:37;1.87;;;1.77;;
10465;SDS011;5280;42.600;23.556;2023-08-17T04:15:05;1.90;;;1.80;;
10465;SDS011;5280;42.600;23.556;2023-08-17T04:17:32;2.60;;;2.10;;
10465;SDS011;5280;42.600;23.556;2023-08-17T04:19:59;4.43;;;2.07;;
10465;SDS011;5280;42.600;23.556;2023-08-17T04:22:26;3.43;;;2.00;;
10465;SDS011;5280;42.600;23.556;2023-08-17T04:24:53;2.10;;;1.90;;
10465;SDS011;5280;42.600;23.556;2023-08-17T04:27:19;2.70;;;1.90;;
10465;SDS011;5280;42.600;23.556;2023-08-17T04:29:46;2.23;;;2.13;;
10465;SDS011;5280;42.600;23.556;2023-08-17T04:32:15;2.13;;;1.97;;
10465;SDS011;5280;42.600;23.556;2023-08-17T04:34:42;2.30;;;1.87;;
10465;SDS011;5280;42.600;23.556;2023-08-17T04:37:08;4.03;;;2.07;;
10465;SDS011;5280;42.600;23.556;2023-08-17T04:39:35;2.00;;;1.87;;
10465;SDS011;5280;42.600;23.556;2023-08-17T04:42:02;2.20;;;1.97;;
10465;SDS011;5280;42.600;23.556;2023-08-17T04:44:29;2.93;;;1.90;;
10465;SDS011;5280;42.600;23.556;2023-08-17T04:46:56;2.17;;;1.97;;
10465;SDS011;5280;42.600;23.556;2023-08-17T04:49:24;6.23;;;2.10;;
10465;SDS011;5280;42.600;23.556;2023-08-17T04:51:51;2.10;;;2.00;;
10465;SDS011;5280;42.600;23.556;2023-08-17T04:54:18;4.60;;;2.27;;
10465;SDS011;5280;42.600;23.556;2023-08-17T04:56:46;3.60;;;2.13;;
10465;SDS011;5280;42.600;23.556;2023-08-17T04:59:13;2.17;;;1.97;;
10465;SDS011;5280;42.600;23.556;2023-08-17T05:01:39;2.67;;;2.43;;
10465;SDS011;5280;42.600;23.556;2023-08-17T05:04:06;1.90;;;1.80;;
10465;SDS011;5280;42.600;23.556;2023-08-17T05:06:34;2.47;;;1.90;;
10465;SDS011;5280;42.600;23.556;2023-08-17T05:09:02;1.87;;;1.77;;
10465;SDS011;5280;42.600;23.556;2023-08-17T05:11:30;3.43;;;1.97;;
10465;SDS011;5280;42.600;23.556;2023-08-17T05:13:56;2.07;;;1.87;;
10465;SDS011;5280;42.600;23.556;2023-08-17T05:16:23;1.97;;;1.87;;
10465;SDS011;5280;42.600;23.556;2023-08-17T05:18:50;3.10;;;1.97;;
10465;SDS011;5280;42.600;23.556;2023-08-17T05:21:18;5.40;;;1.90;;
10465;SDS011;5280;42.600;23.556;2023-08-17T05:23:46;3.73;;;2.20;;
10465;SDS011;5280;42.600;23.556;2023-08-17T05:26:13;3.80;;;2.60;;
10465;SDS011;5280;42.600;23.556;2023-08-17T05:28:39;5.43;;;3.07;;
10465;SDS011;5280;42.600;23.556;2023-08-17T05:31:08;7.33;;;3.00;;
10465;SDS011;5280;42.600;23.556;2023-08-17T05:33:35;4.47;;;3.50;;
10465;SDS011;5280;42.600;23.556;2023-08-17T05:36:02;4.87;;;3.30;;
10465;SDS011;5280;42.600;23.556;2023-08-17T05:38:29;4.37;;;3.40;;
10465;SDS011;5280;42.600;23.556;2023-08-17T05:40:57;5.63;;;2.90;;
10465;SDS011;5280;42.600;23.556;2023-08-17T05:43:25;4.10;;;3.00;;
10465;SDS011;5280;42.600;23.556;2023-08-17T05:45:52;5.57;;;3.90;;
10465;SDS011;5280;42.600;23.556;2023-08-17T05:48:19;4.83;;;3.80;;
10465;SDS011;5280;42.600;23.556;2023-08-17T05:50:46;8.05;;;3.75;;
10465;SDS011;5280;42.600;23.556;2023-08-17T05:53:13;4.60;;;3.03;;
10465;SDS011;5280;42.600;23.556;2023-08-17T05:55:40;5.20;;;3.50;;
10465;SDS011;5280;42.600;23.556;2023-08-17T05:58:08;4.03;;;3.20;;
10465;SDS011;5280;42.600;23.556;2023-08-17T06:00:34;9.73;;;3.60;;
10465;SDS011;5280;42.600;23.556;2023-08-17T06:03:01;4.88;;;3.03;;
10465;SDS011;5280;42.600;23.556;2023-08-17T06:05:28;3.50;;;3.20;;
10465;SDS011;5280;42.600;23.556;2023-08-17T06:07:55;4.43;;;3.20;;
10465;SDS011;5280;42.600;23.556;2023-08-17T06:10:22;5.57;;;3.55;;
10465;SDS011;5280;42.600;23.556;2023-08-17T06:12:50;7.53;;;3.75;;
10465;SDS011;5280;42.600;23.556;2023-08-17T06:15:19;5.93;;;4.22;;
10465;SDS011;5280;42.600;23.556;2023-08-17T06:17:46;5.60;;;5.20;;
10465;SDS011;5280;42.600;23.556;2023-08-17T06:20:15;5.90;;;4.93;;
10465;SDS011;5280;42.600;23.556;2023-08-17T06:22:43;6.65;;;5.45;;
10465;SDS011;5280;42.600;23.556;2023-08-17T06:25:10;5.10;;;4.60;;
10465;SDS011;5280;42.600;23.556;2023-08-17T06:27:36;6.43;;;4.40;;
10465;SDS011;5280;42.600;23.556;2023-08-17T06:30:03;5.90;;;5.00;;
10465;SDS011;5280;42.600;23.556;2023-08-17T06:32:33;8.70;;;4.75;;
10465;SDS011;5280;42.600;23.556;2023-08-17T06:34:59;5.15;;;4.47;;
10465;SDS011;5280;42.600;23.556;2023-08-17T06:37:26;4.70;;;4.30;;
10465;SDS011;5280;42.600;23.556;2023-08-17T06:39:53;5.22;;;4.70;;
10465;SDS011;5280;42.600;23.556;2023-08-17T06:42:20;6.10;;;4.32;;
10465;SDS011;5280;42.600;23.556;2023-08-17T06:44:46;4.53;;;4.00;;
10465;SDS011;5280;42.600;23.556;2023-08-17T06:47:13;5.05;;;4.45;;
10465;SDS011;5280;42.600;23.556;2023-08-17T06:49:41;5.65;;;4.40;;
10465;SDS011;5280;42.600;23.556;2023-08-17T06:52:08;4.95;;;4.45;;
10465;SDS011;5280;42.600;23.556;2023-08-17T06:54:35;7.47;;;4.10;;
10465;SDS011;5280;42.600;23.556;2023-08-17T06:57:01;5.72;;;4.10;;
10465;SDS011;5280;42.600;23.556;2023-08-17T06:59:28;5.25;;;4.00;;
10465;SDS011;5280;42.600;23.556;2023-08-17T07:01:56;4.05;;;3.65;;
10465;SDS011;5280;42.600;23.556;2023-08-17T07:04:22;9.27;;;4.28;;
10465;SDS011;5280;42.600;23.556;2023-08-17T07:06:51;3.55;;;3.28;;
10465;SDS011;5280;42.600;23.556;2023-08-17T07:09:17;8.23;;;4.15;;
10465;SDS011;5280;42.600;23.556;2023-08-17T07:11:45;4.20;;;3.40;;
10465;SDS011;5280;42.600;23.556;2023-08-17T07:14:13;6.13;;;3.88;;
10465;SDS011;5280;42.600;23.556;2023-08-17T07:16:39;4.80;;;3.55;;
10465;SDS011;5280;42.600;23.556;2023-08-17T07:19:06;4.97;;;3.40;;
10465;SDS011;5280;42.600;23.556;2023-08-17T07:21:33;3.75;;;3.38;;
10465;SDS011;5280;42.600;23.556;2023-08-17T07:24:10;4.55;;;3.30;;
10465;SDS011;5280;42.600;23.556;2023-08-17T07:26:38;3.58;;;3.28;;
10465;SDS011;5280;42.600;23.556;2023-08-17T07:29:05;3.97;;;3.10;;
10465;SDS011;5280;42.600;23.556;2023-08-17T07:31:31;5.75;;;3.50;;
10465;SDS011;5280;42.600;23.556;2023-08-17T07:33:58;3.67;;;3.15;;
10465;SDS011;5280;42.600;23.556;2023-08-17T07:36:25;3.72;;;3.42;;
10465;SDS011;5280;42.600;23.556;2023-08-17T07:38:52;4.63;;;3.13;;
10465;SDS011;5280;42.600;23.556;2023-08-17T07:41:20;3.40;;;3.03;;
10465;SDS011;5280;42.600;23.556;2023-08-17T07:43:47;3.65;;;3.25;;
10465;SDS011;5280;42.600;23.556;2023-08-17T07:46:13;4.18;;;3.17;;
10465;SDS011;5280;42.600;23.556;2023-08-17T07:48:40;5.90;;;3.35;;
10465;SDS011;5280;42.600;23.556;2023-08-17T07:51:07;5.85;;;3.20;;
10465;SDS011;5280;42.600;23.556;2023-08-17T07:53:34;7.18;;;3.28;;
10465;SDS011;5280;42.600;23.556;2023-08-17T07:56:00;4.78;;;3.50;;
10465;SDS011;5280;42.600;23.556;2023-08-17T07:58:29;3.42;;;3.08;;
10465;SDS011;5280;42.600;23.556;2023-08-17T08:00:55;3.75;;;2.97;;
10465;SDS011;5280;42.600;23.556;2023-08-17T08:03:22;3.35;;;3.15;;
10465;SDS011;5280;42.600;23.556;2023-08-17T08:05:49;7.38;;;3.60;;
10465;SDS011;5280;42.600;23.556;2023-08-17T08:08:16;4.03;;;2.90;;
10465;SDS011;5280;42.600;23.556;2023-08-17T08:10:43;3.97;;;3.05;;
10465;SDS011;5280;42.600;23.556;2023-08-17T08:13:09;4.45;;;3.00;;
10465;SDS011;5280;42.600;23.556;2023-08-17T08:15:38;4.45;;;3.38;;
10465;SDS011;5280;42.600;23.556;2023-08-17T08:18:04;3.83;;;3.22;;
10465;SDS011;5280;42.600;23.556;2023-08-17T08:20:31;4.13;;;3.60;;
10465;SDS011;5280;42.600;23.556;2023-08-17T08:22:58;4.88;;;3.25;;
10465;SDS011;5280;42.600;23.556;2023-08-17T08:25:25;5.57;;;3.33;;
10465;SDS011;5280;42.600;23.556;2023-08-17T08:27:52;5.07;;;3.05;;
10465;SDS011;5280;42.600;23.556;2023-08-17T08:30:18;3.05;;;2.75;;
10465;SDS011;5280;42.600;23.556;2023-08-17T08:32:47;3.13;;;2.90;;
10465;SDS011;5280;42.600;23.556;2023-08-17T08:35:13;3.42;;;2.22;;
10465;SDS011;5280;42.600;23.556;2023-08-17T08:37:40;3.83;;;1.90;;
10465;SDS011;5280;42.600;23.556;2023-08-17T08:40:09;1.80;;;1.70;;
10465;SDS011;5280;42.600;23.556;2023-08-17T08:42:37;2.65;;;2.33;;
10465;SDS011;5280;42.600;23.556;2023-08-17T08:45:05;1.88;;;1.75;;
10465;SDS011;5280;42.600;23.556;2023-08-17T08:47:32;3.25;;;2.03;;
10465;SDS011;5280;42.600;23.556;2023-08-17T08:50:02;2.50;;;2.03;;
10465;SDS011;5280;42.600;23.556;2023-08-17T08:52:32;2.08;;;1.90;;
10465;SDS011;5280;42.600;23.556;2023-08-17T08:55:03;4.00;;;2.13;;
10465;SDS011;5280;42.600;23.556;2023-08-17T08:57:36;3.03;;;2.30;;
10465;SDS011;5280;42.600;23.556;2023-08-17T09:00:03;2.30;;;2.08;;
10465;SDS011;5280;42.600;23.556;2023-08-17T09:02:32;2.33;;;2.13;;
10465;SDS011;5280;42.600;23.556;2023-08-17T09:05:02;5.05;;;2.13;;
10465;SDS011;5280;42.600;23.556;2023-08-17T09:07:30;2.67;;;1.98;;
10465;SDS011;5280;42.600;23.556;2023-08-17T09:09:58;3.75;;;2.10;;
10465;SDS011;5280;42.600;23.556;2023-08-17T09:12:25;3.95;;;2.33;;
10465;SDS011;5280;42.600;23.556;2023-08-17T09:14:52;2.35;;;2.05;;
10465;SDS011;5280;42.600;23.556;2023-08-17T09:17:22;4.20;;;2.00;;
10465;SDS011;5280;42.600;23.556;2023-08-17T09:19:49;2.90;;;2.10;;
10465;SDS011;5280;42.600;23.556;2023-08-17T09:22:23;3.22;;;2.30;;
10465;SDS011;5280;42.600;23.556;2023-08-17T09:24:50;3.30;;;2.20;;
10465;SDS011;5280;42.600;23.556;2023-08-17T09:27:17;3.05;;;2.13;;
10465;SDS011;5280;42.600;23.556;2023-08-17T09:29:44;2.45;;;2.10;;
10465;SDS011;5280;42.600;23.556;2023-08-17T09:32:14;3.47;;;1.95;;
10465;SDS011;5280;42.600;23.556;2023-08-17T09:34:41;2.05;;;1.95;;
10465;SDS011;5280;42.600;23.556;2023-08-17T09:37:11;2.08;;;1.85;;
10465;SDS011;5280;42.600;23.556;2023-08-17T09:39:39;2.22;;;2.03;;
10465;SDS011;5280;42.600;23.556;2023-08-17T09:42:06;2.50;;;2.13;;
10465;SDS011;5280;42.600;23.556;2023-08-17T09:44:33;2.05;;;1.88;;
10465;SDS011;5280;42.600;23.556;2023-08-17T09:47:01;5.03;;;2.35;;
10465;SDS011;5280;42.600;23.556;2023-08-17T09:49:30;3.30;;;2.00;;
10465;SDS011;5280;42.600;23.556;2023-08-17T09:52:01;2.22;;;2.13;;
10465;SDS011;5280;42.600;23.556;2023-08-17T09:54:29;2.08;;;1.98;;
10465;SDS011;5280;42.600;23.556;2023-08-17T09:56:58;3.28;;;2.00;;
10465;SDS011;5280;42.600;23.556;2023-08-17T09:59:25;2.22;;;2.03;;
10465;SDS011;5280;42.600;23.556;2023-08-17T10:01:52;3.65;;;1.75;;
10465;SDS011;5280;42.600;23.556;2023-08-17T10:04:20;4.00;;;2.13;;
10465;SDS011;5280;42.600;23.556;2023-08-17T10:06:48;2.08;;;1.98;;
10465;SDS011;5280;42.600;23.556;2023-08-17T10:09:20;2.45;;;2.00;;
10465;SDS011;5280;42.600;23.556;2023-08-17T10:11:51;2.17;;;1.85;;
10465;SDS011;5280;42.600;23.556;2023-08-17T10:14:25;2.80;;;1.70;;
10465;SDS011;5280;42.600;23.556;2023-08-17T10:16:57;6.68;;;1.85;;
10465;SDS011;5280;42.600;23.556;2023-08-17T10:19:30;2.40;;;2.00;;
10465;SDS011;5280;42.600;23.556;2023-08-17T10:22:03;3.22;;;2.08;;
10465;SDS011;5280;42.600;23.556;2023-08-17T10:24:41;2.75;;;2.20;;
10465;SDS011;5280;42.600;23.556;2023-08-17T10:27:10;2.20;;;2.00;;
10465;SDS011;5280;42.600;23.556;2023-08-17T10:29:39;1.90;;;1.80;;
10465;SDS011;5280;42.600;23.556;2023-08-17T10:32:08;1.90;;;1.80;;
10465;SDS011;5280;42.600;23.556;2023-08-17T10:34:35;1.80;;;1.70;;
10465;SDS011;5280;42.600;23.556;2023-08-17T10:37:03;3.75;;;2.10;;
10465;SDS011;5280;42.600;23.556;2023-08-17T10:39:32;2.20;;;2.00;;
10465;SDS011;5280;42.600;23.556;2023-08-17T10:41:59;2.50;;;2.03;;
10465;SDS011;5280;42.600;23.556;2023-08-17T10:47:23;3.05;;;2.00;;
10465;SDS011;5280;42.600;23.556;2023-08-17T10:49:51;2.13;;;1.80;;
10465;SDS011;5280;42.600;23.556;2023-08-17T10:52:25;1.88;;;1.77;;
10465;SDS011;5280;42.600;23.556;2023-08-17T10:54:59;2.40;;;1.83;;
10465;SDS011;5280;42.600;23.556;2023-08-17T10:57:33;4.93;;;2.38;;
10465;SDS011;5280;42.600;23.556;2023-08-17T11:00:10;3.00;;;1.73;;
10465;SDS011;5280;42.600;23.556;2023-08-17T11:02:45;3.35;;;2.03;;
10465;SDS011;5280;42.600;23.556;2023-08-17T11:05:30;2.13;;;1.92;;
10465;SDS011;5280;42.600;23.556;2023-08-17T11:08:01;3.92;;;2.30;;
10465;SDS011;5280;42.600;23.556;2023-08-17T11:10:28;3.33;;;2.70;;
10465;SDS011;5280;42.600;23.556;2023-08-17T11:12:55;3.78;;;3.15;;
10465;SDS011;5280;42.600;23.556;2023-08-17T11:15:26;2.33;;;2.22;;
10465;SDS011;5280;42.600;23.556;2023-08-17T11:18:03;2.33;;;2.17;;
10465;SDS011;5280;42.600;23.556;2023-08-17T11:20:30;2.15;;;1.90;;
10465;SDS011;5280;42.600;23.556;2023-08-17T11:22:57;3.85;;;2.17;;
10465;SDS011;5280;42.600;23.556;2023-08-17T11:25:25;4.25;;;3.70;;
10465;SDS011;5280;42.600;23.556;2023-08-17T11:27:52;3.63;;;3.30;;
10465;SDS011;5280;42.600;23.556;2023-08-17T11:30:19;3.67;;;3.38;;
10465;SDS011;5280;42.600;23.556;2023-08-17T11:32:48;3.38;;;3.17;;
10465;SDS011;5280;42.600;23.556;2023-08-17T11:35:16;3.47;;;3.17;;
10465;SDS011;5280;42.600;23.556;2023-08-17T11:37:42;3.70;;;3.40;;
10465;SDS011;5280;42.600;23.556;2023-08-17T11:40:10;3.55;;;3.08;;
10465;SDS011;5280;42.600;23.556;2023-08-17T11:42:37;2.60;;;2.40;;
10465;SDS011;5280;42.600;23.556;2023-08-17T11:45:05;3.45;;;2.92;;
10465;SDS011;5280;42.600;23.556;2023-08-17T11:47:34;4.43;;;3.20;;
10465;SDS011;5280;42.600;23.556;2023-08-17T11:50:03;4.75;;;3.55;;
10465;SDS011;5280;42.600;23.556;2023-08-17T11:52:30;3.55;;;3.22;;
10465;SDS011;5280;42.600;23.556;2023-08-17T11:54:58;3.70;;;3.30;;
10465;SDS011;5280;42.600;23.556;2023-08-17T11:57:25;4.28;;;3.63;;
10465;SDS011;5280;42.600;23.556;2023-08-17T11:59:52;3.47;;;3.17;;
10465;SDS011;5280;42.600;23.556;2023-08-17T12:02:20;3.70;;;3.40;;
10465;SDS011;5280;42.600;23.556;2023-08-17T12:04:47;5.07;;;3.40;;
10465;SDS011;5280;42.600;23.556;2023-08-17T12:07:16;5.00;;;3.20;;
10465;SDS011;5280;42.600;23.556;2023-08-17T12:09:43;5.63;;;3.40;;
10465;SDS011;5280;42.600;23.556;2023-08-17T12:12:10;3.70;;;3.30;;
10465;SDS011;5280;42.600;23.556;2023-08-17T12:14:40;3.40;;;3.20;;
10465;SDS011;5280;42.600;23.556;2023-08-17T12:17:10;4.03;;;3.17;;
10465;SDS011;5280;42.600;23.556;2023-08-17T12:19:40;4.28;;;3.50;;
10465;SDS011;5280;42.600;23.556;2023-08-17T12:22:07;5.30;;;3.30;;
10465;SDS011;5280;42.600;23.556;2023-08-17T12:24:35;3.88;;;3.40;;
10465;SDS011;5280;42.600;23.556;2023-08-17T12:27:02;3.70;;;3.40;;
10465;SDS011;5280;42.600;23.556;2023-08-17T12:29:29;6.00;;;3.55;;
10465;SDS011;5280;42.600;23.556;2023-08-17T12:31:56;4.10;;;3.70;;
10465;SDS011;5280;42.600;23.556;2023-08-17T12:34:23;4.05;;;3.72;;
10465;SDS011;5280;42.600;23.556;2023-08-17T12:36:50;3.88;;;3.60;;
10465;SDS011;5280;42.600;23.556;2023-08-17T12:39:16;4.57;;;3.83;;
10465;SDS011;5280;42.600;23.556;2023-08-17T12:41:44;4.25;;;3.35;;
10465;SDS011;5280;42.600;23.556;2023-08-17T12:44:11;4.85;;;3.38;;
10465;SDS011;5280;42.600;23.556;2023-08-17T12:46:39;3.85;;;3.55;;
10465;SDS011;5280;42.600;23.556;2023-08-17T12:49:05;4.18;;;3.78;;
10465;SDS011;5280;42.600;23.556;2023-08-17T12:51:32;4.13;;;3.55;;
10465;SDS011;5280;42.600;23.556;2023-08-17T12:53:59;4.35;;;3.50;;
10465;SDS011;5280;42.600;23.556;2023-08-17T12:56:26;6.22;;;3.60;;
10465;SDS011;5280;42.600;23.556;2023-08-17T12:58:54;7.05;;;3.40;;
10465;SDS011;5280;42.600;23.556;2023-08-17T13:01:21;4.68;;;3.72;;
10465;SDS011;5280;42.600;23.556;2023-08-17T13:03:50;3.80;;;3.50;;
10465;SDS011;5280;42.600;23.556;2023-08-17T13:06:20;4.60;;;3.58;;
10465;SDS011;5280;42.600;23.556;2023-08-17T13:08:47;3.78;;;3.47;;
10465;SDS011;5280;42.600;23.556;2023-08-17T13:11:13;3.53;;;3.10;;
10465;SDS011;5280;42.600;23.556;2023-08-17T13:13:40;3.75;;;3.30;;
10465;SDS011;5280;42.600;23.556;2023-08-17T13:16:08;4.13;;;3.20;;
10465;SDS011;5280;42.600;23.556;2023-08-17T13:18:36;7.78;;;3.28;;
10465;SDS011;5280;42.600;23.556;2023-08-17T13:21:02;3.85;;;3.20;;
10465;SDS011;5280;42.600;23.556;2023-08-17T13:23:30;3.88;;;3.33;;
10465;SDS011;5280;42.600;23.556;2023-08-17T13:25:56;4.93;;;3.58;;
10465;SDS011;5280;42.600;23.556;2023-08-17T13:28:23;3.58;;;3.00;;
10465;SDS011;5280;42.600;23.556;2023-08-17T13:30:50;5.28;;;3.20;;
10465;SDS011;5280;42.600;23.556;2023-08-17T13:33:18;7.18;;;3.45;;
10465;SDS011;5280;42.600;23.556;2023-08-17T13:35:45;5.00;;;3.35;;
10465;SDS011;5280;42.600;23.556;2023-08-17T13:38:12;3.42;;;3.22;;
10465;SDS011;5280;42.600;23.556;2023-08-17T13:40:39;3.95;;;3.55;;
10465;SDS011;5280;42.600;23.556;2023-08-17T13:43:05;3.50;;;3.20;;
10465;SDS011;5280;42.600;23.556;2023-08-17T13:45:37;3.50;;;3.20;;
10465;SDS011;5280;42.600;23.556;2023-08-17T13:48:04;4.30;;;3.17;;
10465;SDS011;5280;42.600;23.556;2023-08-17T13:50:33;3.75;;;3.20;;
10465;SDS011;5280;42.600;23.556;2023-08-17T13:53:00;3.60;;;3.25;;
10465;SDS011;5280;42.600;23.556;2023-08-17T13:55:27;3.65;;;3.40;;
10465;SDS011;5280;42.600;23.556;2023-08-17T13:57:54;3.70;;;3.40;;
10465;SDS011;5280;42.600;23.556;2023-08-17T14:00:21;3.47;;;3.10;;
10465;SDS011;5280;42.600;23.556;2023-08-17T14:02:48;3.40;;;3.10;;
10465;SDS011;5280;42.600;23.556;2023-08-17T14:05:15;5.45;;;3.30;;
10465;SDS011;5280;42.600;23.556;2023-08-17T14:07:44;3.33;;;3.08;;
10465;SDS011;5280;42.600;23.556;2023-08-17T14:10:10;3.72;;;3.13;;
10465;SDS011;5280;42.600;23.556;2023-08-17T14:12:37;4.60;;;3.28;;
10465;SDS011;5280;42.600;23.556;2023-08-17T14:15:04;3.42;;;3.13;;
10465;SDS011;5280;42.600;23.556;2023-08-17T14:17:32;3.92;;;2.88;;
10465;SDS011;5280;42.600;23.556;2023-08-17T14:20:04;6.47;;;3.13;;
10465;SDS011;5280;42.600;23.556;2023-08-17T14:22:31;4.32;;;2.92;;
10465;SDS011;5280;42.600;23.556;2023-08-17T14:25:00;3.17;;;2.88;;
10465;SDS011;5280;42.600;23.556;2023-08-17T14:27:28;3.85;;;2.80;;
10465;SDS011;5280;42.600;23.556;2023-08-17T14:29:55;4.20;;;2.97;;
10465;SDS011;5280;42.600;23.556;2023-08-17T14:32:22;2.97;;;2.78;;
10465;SDS011;5280;42.600;23.556;2023-08-17T14:34:48;3.75;;;3.03;;
10465;SDS011;5280;42.600;23.556;2023-08-17T14:37:15;3.47;;;2.78;;
10465;SDS011;5280;42.600;23.556;2023-08-17T14:39:42;5.72;;;2.97;;
10465;SDS011;5280;42.600;23.556;2023-08-17T14:42:10;3.03;;;2.83;;
10465;SDS011;5280;42.600;23.556;2023-08-17T14:44:37;3.53;;;2.90;;
10465;SDS011;5280;42.600;23.556;2023-08-17T14:47:04;3.03;;;2.83;;
10465;SDS011;5280;42.600;23.556;2023-08-17T14:49:31;4.32;;;2.80;;
10465;SDS011;5280;42.600;23.556;2023-08-17T14:51:58;3.20;;;2.88;;
10465;SDS011;5280;42.600;23.556;2023-08-17T14:54:25;3.53;;;2.90;;